L'Atalante — FNCM — position and weather

sailwx.info

Track history (hours):
 
Tides and Currents Weather Stations Pressure Air Temp Water Temp Dewpoint Dewpoint Depression Visibility Wind Speed Wind Dir Waves Ship Positions

Oceanographic research ship L'Atalante (France)

Detailed information on ship capabilities available from University of Delaware's Ocean Information Center and ARCUS's ALIAS (Arctic Logistics Information and Support) project.

Last reported at 2017-Oct-03 00:35 UTC. Time now 2017-Oct-20 21:15 UTC.
Position N 43°40' W 005°03'.
Warning: this ship's position is 17 days out of date.

Length 85 m; beam 16 m.

Type: Other ship. MMSI: 227222000.

Date/timePositionNaut miles runAvg speedWind from/ knotsBaromVisibWave heightAir tempDewpointWater temp
2017-Oct-03 00:35N 43°40' W 005°03'1 4.9
2017-Oct-03 00:19N 43°40' W 005°05'19 4.8
2017-Oct-02 20:26N 43°43' W 005°31'2 4.4
2017-Oct-02 20:00N 43°44' W 005°33'2 4.4
2017-Oct-02 19:29N 43°44' W 005°36'3 5.4
2017-Oct-02 18:59N 43°44' W 005°40'3 5.2
2017-Oct-02 18:30N 43°45' W 005°44'3 5.2
2017-Oct-02 17:59N 43°45' W 005°47'2 5.1
2017-Oct-02 17:30N 43°45' W 005°51'3 5.0
2017-Oct-02 17:00N 43°46' W 005°54'3 5.2
2017-Oct-02 16:27N 43°46' W 005°58'  
2017-Sep-30 02:00N 37°32' W 009°30'2410.7
2017-Sep-29 23:46N 37°09' W 009°24'1210.5
2017-Sep-29 22:36N 36°57' W 009°20'110.1
2017-Sep-29 22:30N 36°56' W 009°20'5 9.9
2017-Sep-29 22:00N 36°51' W 009°17'510.9
2017-Sep-29 21:30N 36°48' W 009°12'511.0
2017-Sep-29 21:00N 36°45' W 009°06'511.0
2017-Sep-29 20:30N 36°43' W 008°60'611.1
2017-Sep-29 20:00N 36°41' W 008°53'611.1
2017-Sep-29 19:30N 36°39' W 008°47'710.7
2017-Sep-29 18:53N 36°37' W 008°39'1911.2
2017-Sep-29 17:13N 36°31' W 008°17'211.3
2017-Sep-29 17:00N 36°31' W 008°14'611.4
2017-Sep-29 16:30N 36°29' W 008°07'1411.8
2017-Sep-29 15:20N 36°24' W 007°51'11211.6
2017-Sep-29 05:42N 35°58' W 005°37'211.6
2017-Sep-29 05:30N 35°58' W 005°34'510.9
2017-Sep-29 05:00N 35°60' W 005°27'611.0
2017-Sep-29 04:30N 36°02' W 005°21'510.5
2017-Sep-29 04:00N 36°03' W 005°14'22410.8
2017-Sep-28 07:10N 37°21' W 000°52'411.6
2017-Sep-28 06:50N 37°24' W 000°49'411.8
2017-Sep-28 06:30N 37°26' W 000°45'912.1
2017-Sep-28 05:46N 37°32' W 000°36'312.0
2017-Sep-28 05:30N 37°34' W 000°34'612.0
2017-Sep-28 05:00N 37°39' W 000°29'611.9
2017-Sep-28 04:30N 37°43' W 000°24'12911.5
2017-Sep-27 17:19N 39°21' E 001°24'1211.4
2017-Sep-27 16:17N 39°29' E 001°35'511.5
2017-Sep-27 15:50N 39°33' E 001°39'1211.7
2017-Sep-27 14:50N 39°42' E 001°49'411.8
2017-Sep-27 14:30N 39°45' E 001°52'611.6
2017-Sep-27 14:00N 39°50' E 001°57'611.8
2017-Sep-27 13:30N 39°54' E 002°02'611.8
2017-Sep-27 13:00N 39°59' E 002°07'611.7
2017-Sep-27 12:29N 40°03' E 002°12'612.0
2017-Sep-27 12:00N 40°07' E 002°17'612.1
2017-Sep-27 11:30N 40°12' E 002°22'611.9
2017-Sep-27 11:00N 40°17' E 002°27'612.0
2017-Sep-27 10:30N 40°21' E 002°32'611.8
2017-Sep-27 10:00N 40°26' E 002°37'611.7
2017-Sep-27 09:30N 40°30' E 002°42'611.5
2017-Sep-27 09:00N 40°34' E 002°48'611.5
2017-Sep-27 08:30N 40°39' E 002°53'612.0
2017-Sep-27 08:00N 40°43' E 002°58'612.1
2017-Sep-27 07:30N 40°48' E 003°02'612.6
2017-Sep-27 07:00N 40°53' E 003°08'712.8
2017-Sep-27 06:27N 40°58' E 003°15'17511.7
2017-Sep-26 15:27N 43°05' E 005°57'3 6.6
2017-Sep-26 15:00N 43°06' E 005°53'0 0.1
2017-Sep-26 14:28N 43°06' E 005°53'0 0.0
2017-Sep-26 13:58N 43°06' E 005°53'0 0.0
2017-Sep-26 13:28N 43°06' E 005°53'0 0.0
2017-Sep-26 12:58N 43°06' E 005°53'0 0.0
2017-Sep-26 12:28N 43°06' E 005°53'0 0.0
2017-Sep-26 11:58N 43°06' E 005°53'0 0.0
2017-Sep-26 11:28N 43°06' E 005°53'0 0.0
2017-Sep-26 10:58N 43°06' E 005°53'0 0.0
2017-Sep-26 10:28N 43°06' E 005°53'0 0.0
2017-Sep-26 09:58N 43°06' E 005°53'0 0.0
2017-Sep-26 09:28N 43°06' E 005°53'0 0.0
2017-Sep-26 08:58N 43°06' E 005°53'0 0.0
2017-Sep-26 08:28N 43°06' E 005°53'0 0.0
2017-Sep-26 07:58N 43°06' E 005°53'0 0.0
2017-Sep-26 07:28N 43°06' E 005°53'0 0.0
2017-Sep-26 06:58N 43°06' E 005°53'0 0.0
2017-Sep-26 06:28N 43°06' E 005°53'0 0.0
2017-Sep-26 05:58N 43°06' E 005°53'0 0.0
2017-Sep-26 05:28N 43°06' E 005°53'0 0.0
2017-Sep-26 04:58N 43°06' E 005°53'0 0.0
2017-Sep-26 04:28N 43°06' E 005°53'0 0.0
2017-Sep-26 03:58N 43°06' E 005°53'0 0.0
2017-Sep-26 03:28N 43°06' E 005°53'0 0.0
2017-Sep-26 02:58N 43°06' E 005°53'0 0.0
2017-Sep-26 02:28N 43°06' E 005°53'0 0.0
2017-Sep-26 01:58N 43°06' E 005°53'0 0.0
2017-Sep-26 01:28N 43°06' E 005°53'0 0.0
2017-Sep-26 00:55N 43°06' E 005°53'0 0.0
2017-Sep-26 00:28N 43°06' E 005°53'0 0.0
2017-Sep-25 23:58N 43°06' E 005°53'0 0.0
2017-Sep-25 23:28N 43°06' E 005°53'0 0.0
2017-Sep-25 22:58N 43°06' E 005°53'0 0.0
2017-Sep-25 22:28N 43°06' E 005°53'0 0.0
2017-Sep-25 21:58N 43°06' E 005°53'0 0.0
2017-Sep-25 21:28N 43°06' E 005°53'0 0.0
2017-Sep-25 20:58N 43°06' E 005°53'0 0.0
2017-Sep-25 20:25N 43°06' E 005°53'0 0.0
2017-Sep-25 19:58N 43°06' E 005°53'0 0.0
2017-Sep-25 19:28N 43°06' E 005°53'0 0.0
2017-Sep-25 18:55N 43°06' E 005°53'0 0.0
2017-Sep-25 18:28N 43°06' E 005°53'0 0.0
2017-Sep-25 17:58N 43°06' E 005°53'0 0.0
2017-Sep-25 17:28N 43°06' E 005°53'0 0.0
2017-Sep-25 16:58N 43°06' E 005°53'0 0.0
2017-Sep-25 16:28N 43°06' E 005°53'0 0.0
2017-Sep-25 15:58N 43°06' E 005°53'0 0.0
2017-Sep-25 15:28N 43°06' E 005°53'0 0.0
2017-Sep-25 14:58N 43°06' E 005°53'0 0.0
2017-Sep-25 14:28N 43°06' E 005°53'0 0.0
2017-Sep-25 13:58N 43°06' E 005°53'0 0.0
2017-Sep-25 13:28N 43°06' E 005°53'0 0.0
2017-Sep-25 12:58N 43°06' E 005°53'0 0.0
2017-Sep-25 12:28N 43°06' E 005°53'0 0.0
2017-Sep-25 11:58N 43°06' E 005°53'0 0.0
2017-Sep-25 11:28N 43°06' E 005°53'0 0.0
2017-Sep-25 10:58N 43°06' E 005°53'0 0.0
2017-Sep-25 10:28N 43°06' E 005°53'0 0.0
2017-Sep-25 09:58N 43°06' E 005°53'0 0.0
2017-Sep-25 09:28N 43°06' E 005°53'0 0.0
2017-Sep-25 08:58N 43°06' E 005°53'0 0.0
2017-Sep-25 08:28N 43°06' E 005°53'0 0.0
2017-Sep-25 07:58N 43°06' E 005°53'0 0.0
2017-Sep-25 07:28N 43°06' E 005°53'0 0.0
2017-Sep-25 06:58N 43°06' E 005°53'0 0.0
2017-Sep-25 06:28N 43°06' E 005°53'0 0.0
2017-Sep-25 05:58N 43°06' E 005°53'0 0.0
2017-Sep-25 05:28N 43°06' E 005°53'0 0.0
2017-Sep-25 04:58N 43°06' E 005°53'0 0.0
2017-Sep-25 04:28N 43°06' E 005°53'0 0.0
2017-Sep-25 03:55N 43°06' E 005°53'0 0.0
2017-Sep-25 03:25N 43°06' E 005°53'0 0.0
2017-Sep-25 02:58N 43°06' E 005°53'0 0.0
2017-Sep-25 02:28N 43°06' E 005°53'0 0.0
2017-Sep-25 01:58N 43°06' E 005°53'0 0.0
2017-Sep-25 01:28N 43°06' E 005°53'0 0.0
2017-Sep-25 00:58N 43°06' E 005°53'0 0.0
2017-Sep-25 00:28N 43°06' E 005°53'0 0.0
2017-Sep-24 23:58N 43°06' E 005°53'0 0.0
2017-Sep-24 23:28N 43°06' E 005°53'0 0.0
2017-Sep-24 22:58N 43°06' E 005°53'0 0.0
2017-Sep-24 22:28N 43°06' E 005°53'0 0.0
2017-Sep-24 21:58N 43°06' E 005°53'0 0.0
2017-Sep-24 21:28N 43°06' E 005°53'0 0.0
2017-Sep-24 20:58N 43°06' E 005°53'0 0.0
2017-Sep-24 20:28N 43°06' E 005°53'0 0.0
2017-Sep-24 19:58N 43°06' E 005°53'0 0.0
2017-Sep-24 19:28N 43°06' E 005°53'0 0.0
2017-Sep-24 18:58N 43°06' E 005°53'0 0.0
2017-Sep-24 18:28N 43°06' E 005°53'0 0.0
2017-Sep-24 17:58N 43°06' E 005°53'0 0.0
2017-Sep-24 17:28N 43°06' E 005°53'0 0.0
2017-Sep-24 16:58N 43°06' E 005°53'0 0.0
2017-Sep-24 16:28N 43°06' E 005°53'0 0.0
2017-Sep-24 15:58N 43°06' E 005°53'0 0.0
2017-Sep-24 15:28N 43°06' E 005°53'0 0.0
2017-Sep-24 14:58N 43°06' E 005°53'0 0.0
2017-Sep-24 14:28N 43°06' E 005°53'0 0.0
2017-Sep-24 13:58N 43°06' E 005°53'0 0.0
2017-Sep-24 13:28N 43°06' E 005°53'0 0.0
2017-Sep-24 13:01N 43°06' E 005°53'0 0.0
2017-Sep-24 12:31N 43°06' E 005°53'0 0.0
2017-Sep-24 11:58N 43°06' E 005°53'0 0.0
2017-Sep-24 11:28N 43°06' E 005°53'0 0.0
2017-Sep-24 10:58N 43°06' E 005°53'0 0.0
2017-Sep-24 10:31N 43°06' E 005°53'0 0.0
2017-Sep-24 09:58N 43°06' E 005°53'0 0.0
2017-Sep-24 09:30N 43°06' E 005°53'0 0.0
2017-Sep-24 09:00N 43°06' E 005°53'0 0.0
2017-Sep-24 08:30N 43°06' E 005°53'0 0.0
2017-Sep-24 08:01N 43°06' E 005°53'0 0.0
2017-Sep-24 07:31N 43°06' E 005°53'0 0.0
2017-Sep-24 07:00N 43°06' E 005°53'0 0.0
2017-Sep-24 06:31N 43°06' E 005°53'0 0.0
2017-Sep-24 06:00N 43°06' E 005°53'0 0.0
2017-Sep-24 05:30N 43°06' E 005°53'0 0.0
2017-Sep-24 05:00N 43°06' E 005°53'0 0.0
2017-Sep-24 04:30N 43°06' E 005°53'0 0.0
2017-Sep-24 03:58N 43°06' E 005°53'0 0.0
2017-Sep-24 03:28N 43°06' E 005°53'0 0.0
2017-Sep-24 03:00N 43°06' E 005°53'0 0.0
2017-Sep-24 02:30N 43°06' E 005°53'0 0.0
2017-Sep-24 01:57N 43°06' E 005°53'0 0.0
2017-Sep-24 01:30N 43°06' E 005°53'0 0.0
2017-Sep-24 01:00N 43°06' E 005°53'0 0.0
2017-Sep-24 00:28N 43°06' E 005°53'0 0.0
2017-Sep-23 23:58N 43°06' E 005°53'0 0.0
2017-Sep-23 23:27N 43°06' E 005°53'0 0.0
2017-Sep-23 23:01N 43°06' E 005°53'0 0.0
2017-Sep-23 22:27N 43°06' E 005°53'0 0.0
2017-Sep-23 21:58N 43°06' E 005°53'0 0.0
2017-Sep-23 21:28N 43°06' E 005°53'0 0.0
2017-Sep-23 21:00N 43°06' E 005°53'0 0.0
2017-Sep-23 20:28N 43°06' E 005°53'0 0.0
2017-Sep-23 20:00N 43°06' E 005°53'  
Track history (hours):
 
Tides and Currents Weather Stations Pressure Air Temp Water Temp Dewpoint Dewpoint Depression Visibility Wind Speed Wind Dir Waves Ship Positions

Oceanographic research ship L'Atalante (France)

Detailed information on ship capabilities available from University of Delaware's Ocean Information Center and ARCUS's ALIAS (Arctic Logistics Information and Support) project.

Last reported at 2017-Oct-03 00:35 UTC. Time now 2017-Oct-20 21:15 UTC.
Position N 43°40' W 005°03'.
Warning: this ship's position is 17 days out of date.

Length 85 m; beam 16 m.

Type: Other ship. MMSI: 227222000.

Date/timePositionNaut miles runAvg speedWind from/ knotsBaromVisibWave heightAir tempDewpointWater temp
2017-Oct-03 00:35N 43°40' W 005°03'1 4.9
2017-Oct-03 00:19N 43°40' W 005°05'19 4.8
2017-Oct-02 20:26N 43°43' W 005°31'2 4.4
2017-Oct-02 20:00N 43°44' W 005°33'2 4.4
2017-Oct-02 19:29N 43°44' W 005°36'3 5.4
2017-Oct-02 18:59N 43°44' W 005°40'3 5.2
2017-Oct-02 18:30N 43°45' W 005°44'3 5.2
2017-Oct-02 17:59N 43°45' W 005°47'2 5.1
2017-Oct-02 17:30N 43°45' W 005°51'3 5.0
2017-Oct-02 17:00N 43°46' W 005°54'3 5.2
2017-Oct-02 16:27N 43°46' W 005°58'  
2017-Sep-30 02:00N 37°32' W 009°30'2410.7
2017-Sep-29 23:46N 37°09' W 009°24'1210.5
2017-Sep-29 22:36N 36°57' W 009°20'110.1
2017-Sep-29 22:30N 36°56' W 009°20'5 9.9
2017-Sep-29 22:00N 36°51' W 009°17'510.9
2017-Sep-29 21:30N 36°48' W 009°12'511.0
2017-Sep-29 21:00N 36°45' W 009°06'511.0
2017-Sep-29 20:30N 36°43' W 008°60'611.1
2017-Sep-29 20:00N 36°41' W 008°53'611.1
2017-Sep-29 19:30N 36°39' W 008°47'710.7
2017-Sep-29 18:53N 36°37' W 008°39'1911.2
2017-Sep-29 17:13N 36°31' W 008°17'211.3
2017-Sep-29 17:00N 36°31' W 008°14'611.4
2017-Sep-29 16:30N 36°29' W 008°07'1411.8
2017-Sep-29 15:20N 36°24' W 007°51'11211.6
2017-Sep-29 05:42N 35°58' W 005°37'211.6
2017-Sep-29 05:30N 35°58' W 005°34'510.9
2017-Sep-29 05:00N 35°60' W 005°27'611.0
2017-Sep-29 04:30N 36°02' W 005°21'510.5
2017-Sep-29 04:00N 36°03' W 005°14'22410.8
2017-Sep-28 07:10N 37°21' W 000°52'411.6
2017-Sep-28 06:50N 37°24' W 000°49'411.8
2017-Sep-28 06:30N 37°26' W 000°45'912.1
2017-Sep-28 05:46N 37°32' W 000°36'312.0
2017-Sep-28 05:30N 37°34' W 000°34'612.0
2017-Sep-28 05:00N 37°39' W 000°29'611.9
2017-Sep-28 04:30N 37°43' W 000°24'12911.5
2017-Sep-27 17:19N 39°21' E 001°24'1211.4
2017-Sep-27 16:17N 39°29' E 001°35'511.5
2017-Sep-27 15:50N 39°33' E 001°39'1211.7
2017-Sep-27 14:50N 39°42' E 001°49'411.8
2017-Sep-27 14:30N 39°45' E 001°52'611.6
2017-Sep-27 14:00N 39°50' E 001°57'611.8
2017-Sep-27 13:30N 39°54' E 002°02'611.8
2017-Sep-27 13:00N 39°59' E 002°07'611.7
2017-Sep-27 12:29N 40°03' E 002°12'612.0
2017-Sep-27 12:00N 40°07' E 002°17'612.1
2017-Sep-27 11:30N 40°12' E 002°22'611.9
2017-Sep-27 11:00N 40°17' E 002°27'612.0
2017-Sep-27 10:30N 40°21' E 002°32'611.8
2017-Sep-27 10:00N 40°26' E 002°37'611.7
2017-Sep-27 09:30N 40°30' E 002°42'611.5
2017-Sep-27 09:00N 40°34' E 002°48'611.5
2017-Sep-27 08:30N 40°39' E 002°53'612.0
2017-Sep-27 08:00N 40°43' E 002°58'612.1
2017-Sep-27 07:30N 40°48' E 003°02'612.6
2017-Sep-27 07:00N 40°53' E 003°08'712.8
2017-Sep-27 06:27N 40°58' E 003°15'17511.7
2017-Sep-26 15:27N 43°05' E 005°57'3 6.6
2017-Sep-26 15:00N 43°06' E 005°53'0 0.1
2017-Sep-26 14:28N 43°06' E 005°53'0 0.0
2017-Sep-26 13:58N 43°06' E 005°53'0 0.0
2017-Sep-26 13:28N 43°06' E 005°53'0 0.0
2017-Sep-26 12:58N 43°06' E 005°53'0 0.0
2017-Sep-26 12:28N 43°06' E 005°53'0 0.0
2017-Sep-26 11:58N 43°06' E 005°53'0 0.0
2017-Sep-26 11:28N 43°06' E 005°53'0 0.0
2017-Sep-26 10:58N 43°06' E 005°53'0 0.0
2017-Sep-26 10:28N 43°06' E 005°53'0 0.0
2017-Sep-26 09:58N 43°06' E 005°53'0 0.0
2017-Sep-26 09:28N 43°06' E 005°53'0 0.0
2017-Sep-26 08:58N 43°06' E 005°53'0 0.0
2017-Sep-26 08:28N 43°06' E 005°53'0 0.0
2017-Sep-26 07:58N 43°06' E 005°53'0 0.0
2017-Sep-26 07:28N 43°06' E 005°53'0 0.0
2017-Sep-26 06:58N 43°06' E 005°53'0 0.0
2017-Sep-26 06:28N 43°06' E 005°53'0 0.0
2017-Sep-26 05:58N 43°06' E 005°53'0 0.0
2017-Sep-26 05:28N 43°06' E 005°53'0 0.0
2017-Sep-26 04:58N 43°06' E 005°53'0 0.0
2017-Sep-26 04:28N 43°06' E 005°53'0 0.0
2017-Sep-26 03:58N 43°06' E 005°53'0 0.0
2017-Sep-26 03:28N 43°06' E 005°53'0 0.0
2017-Sep-26 02:58N 43°06' E 005°53'0 0.0
2017-Sep-26 02:28N 43°06' E 005°53'0 0.0
2017-Sep-26 01:58N 43°06' E 005°53'0 0.0
2017-Sep-26 01:28N 43°06' E 005°53'0 0.0
2017-Sep-26 00:55N 43°06' E 005°53'0 0.0
2017-Sep-26 00:28N 43°06' E 005°53'0 0.0
2017-Sep-25 23:58N 43°06' E 005°53'0 0.0
2017-Sep-25 23:28N 43°06' E 005°53'0 0.0
2017-Sep-25 22:58N 43°06' E 005°53'0 0.0
2017-Sep-25 22:28N 43°06' E 005°53'0 0.0
2017-Sep-25 21:58N 43°06' E 005°53'0 0.0
2017-Sep-25 21:28N 43°06' E 005°53'0 0.0
2017-Sep-25 20:58N 43°06' E 005°53'0 0.0
2017-Sep-25 20:25N 43°06' E 005°53'0 0.0
2017-Sep-25 19:58N 43°06' E 005°53'0 0.0
2017-Sep-25 19:28N 43°06' E 005°53'0 0.0
2017-Sep-25 18:55N 43°06' E 005°53'0 0.0
2017-Sep-25 18:28N 43°06' E 005°53'0 0.0
2017-Sep-25 17:58N 43°06' E 005°53'0 0.0
2017-Sep-25 17:28N 43°06' E 005°53'0 0.0
2017-Sep-25 16:58N 43°06' E 005°53'0 0.0
2017-Sep-25 16:28N 43°06' E 005°53'0 0.0
2017-Sep-25 15:58N 43°06' E 005°53'0 0.0
2017-Sep-25 15:28N 43°06' E 005°53'0 0.0
2017-Sep-25 14:58N 43°06' E 005°53'0 0.0
2017-Sep-25 14:28N 43°06' E 005°53'0 0.0
2017-Sep-25 13:58N 43°06' E 005°53'0 0.0
2017-Sep-25 13:28N 43°06' E 005°53'0 0.0
2017-Sep-25 12:58N 43°06' E 005°53'0 0.0
2017-Sep-25 12:28N 43°06' E 005°53'0 0.0
2017-Sep-25 11:58N 43°06' E 005°53'0 0.0
2017-Sep-25 11:28N 43°06' E 005°53'0 0.0
2017-Sep-25 10:58N 43°06' E 005°53'0 0.0
2017-Sep-25 10:28N 43°06' E 005°53'0 0.0
2017-Sep-25 09:58N 43°06' E 005°53'0 0.0
2017-Sep-25 09:28N 43°06' E 005°53'0 0.0
2017-Sep-25 08:58N 43°06' E 005°53'0 0.0
2017-Sep-25 08:28N 43°06' E 005°53'0 0.0
2017-Sep-25 07:58N 43°06' E 005°53'0 0.0
2017-Sep-25 07:28N 43°06' E 005°53'0 0.0
2017-Sep-25 06:58N 43°06' E 005°53'0 0.0
2017-Sep-25 06:28N 43°06' E 005°53'0 0.0
2017-Sep-25 05:58N 43°06' E 005°53'0 0.0
2017-Sep-25 05:28N 43°06' E 005°53'0 0.0
2017-Sep-25 04:58N 43°06' E 005°53'0 0.0
2017-Sep-25 04:28N 43°06' E 005°53'0 0.0
2017-Sep-25 03:55N 43°06' E 005°53'0 0.0
2017-Sep-25 03:25N 43°06' E 005°53'0 0.0
2017-Sep-25 02:58N 43°06' E 005°53'0 0.0
2017-Sep-25 02:28N 43°06' E 005°53'0 0.0
2017-Sep-25 01:58N 43°06' E 005°53'0 0.0
2017-Sep-25 01:28N 43°06' E 005°53'0 0.0
2017-Sep-25 00:58N 43°06' E 005°53'0 0.0
2017-Sep-25 00:28N 43°06' E 005°53'0 0.0
2017-Sep-24 23:58N 43°06' E 005°53'0 0.0
2017-Sep-24 23:28N 43°06' E 005°53'0 0.0
2017-Sep-24 22:58N 43°06' E 005°53'0 0.0
2017-Sep-24 22:28N 43°06' E 005°53'0 0.0
2017-Sep-24 21:58N 43°06' E 005°53'0 0.0
2017-Sep-24 21:28N 43°06' E 005°53'0 0.0
2017-Sep-24 20:58N 43°06' E 005°53'0 0.0
2017-Sep-24 20:28N 43°06' E 005°53'0 0.0
2017-Sep-24 19:58N 43°06' E 005°53'0 0.0
2017-Sep-24 19:28N 43°06' E 005°53'0 0.0
2017-Sep-24 18:58N 43°06' E 005°53'0 0.0
2017-Sep-24 18:28N 43°06' E 005°53'0 0.0
2017-Sep-24 17:58N 43°06' E 005°53'0 0.0
2017-Sep-24 17:28N 43°06' E 005°53'0 0.0
2017-Sep-24 16:58N 43°06' E 005°53'0 0.0
2017-Sep-24 16:28N 43°06' E 005°53'0 0.0
2017-Sep-24 15:58N 43°06' E 005°53'0 0.0
2017-Sep-24 15:28N 43°06' E 005°53'0 0.0
2017-Sep-24 14:58N 43°06' E 005°53'0 0.0
2017-Sep-24 14:28N 43°06' E 005°53'0 0.0
2017-Sep-24 13:58N 43°06' E 005°53'0 0.0
2017-Sep-24 13:28N 43°06' E 005°53'0 0.0
2017-Sep-24 13:01N 43°06' E 005°53'0 0.0
2017-Sep-24 12:31N 43°06' E 005°53'0 0.0
2017-Sep-24 11:58N 43°06' E 005°53'0 0.0
2017-Sep-24 11:28N 43°06' E 005°53'0 0.0
2017-Sep-24 10:58N 43°06' E 005°53'0 0.0
2017-Sep-24 10:31N 43°06' E 005°53'0 0.0
2017-Sep-24 09:58N 43°06' E 005°53'0 0.0
2017-Sep-24 09:30N 43°06' E 005°53'0 0.0
2017-Sep-24 09:00N 43°06' E 005°53'0 0.0
2017-Sep-24 08:30N 43°06' E 005°53'0 0.0
2017-Sep-24 08:01N 43°06' E 005°53'0 0.0
2017-Sep-24 07:31N 43°06' E 005°53'0 0.0
2017-Sep-24 07:00N 43°06' E 005°53'0 0.0
2017-Sep-24 06:31N 43°06' E 005°53'0 0.0
2017-Sep-24 06:00N 43°06' E 005°53'0 0.0
2017-Sep-24 05:30N 43°06' E 005°53'0 0.0
2017-Sep-24 05:00N 43°06' E 005°53'0 0.0
2017-Sep-24 04:30N 43°06' E 005°53'0 0.0
2017-Sep-24 03:58N 43°06' E 005°53'0 0.0
2017-Sep-24 03:28N 43°06' E 005°53'0 0.0
2017-Sep-24 03:00N 43°06' E 005°53'0 0.0
2017-Sep-24 02:30N 43°06' E 005°53'0 0.0
2017-Sep-24 01:57N 43°06' E 005°53'0 0.0
2017-Sep-24 01:30N 43°06' E 005°53'0 0.0
2017-Sep-24 01:00N 43°06' E 005°53'0 0.0
2017-Sep-24 00:28N 43°06' E 005°53'0 0.0
2017-Sep-23 23:58N 43°06' E 005°53'0 0.0
2017-Sep-23 23:27N 43°06' E 005°53'0 0.0
2017-Sep-23 23:01N 43°06' E 005°53'0 0.0
2017-Sep-23 22:27N 43°06' E 005°53'0 0.0
2017-Sep-23 21:58N 43°06' E 005°53'0 0.0
2017-Sep-23 21:28N 43°06' E 005°53'0 0.0
2017-Sep-23 21:00N 43°06' E 005°53'0 0.0
2017-Sep-23 20:28N 43°06' E 005°53'0 0.0
2017-Sep-23 20:00N 43°06' E 005°53'  

Dump ship's entire track history